Racecast

Malayah Adams

RPM Legacy (CA) · - · PAC · Compare head to head

Athlete rating 120.0 2016 TF season
Best race 120.7 TF
Races 88
Seasons 5 2013 — 2017
Rating scale ?
Speed rating — all races

Track & Field

TF speed rating

2017 TF

RPM Legacy (CA) · Grade -

Date Meet Event Result Place Rating Difficulty PR/SR Flags
2017-06-03 M.P. Striders USATF PA Youth Sectionals 200m 28.92 6th · 1st on team -0.019 ★PR SR
2017-04-29 RETC USATF PA Youth T&F 80mh 17.83 5th · 1st on team -0.024 ★PR SR
2017-04-29 RETC USATF PA Youth T&F 400m 1:14.94 16th · 2nd on team -0.024 SR
2017-04-29 RETC USATF PA Youth T&F 200m 29.94 7th · 1st on team -0.024 SR

2016 TF 118.2

RPM Legacy (CA) · Grade -

Date Meet Event Result Place Rating Difficulty PR/SR Flags
2016-06-12 USATF Pacific Association Youth Championship 80mh 20.35 24th · 2nd on team -0.035
2016-06-12 USATF Pacific Association Youth Championship 800m 3:05.52 22nd · 1st on team 120.7 -0.035 ★PR ★R SR RSR
2016-06-04 M.P. Striders USATF Youth T&F Sectionals 80mh 19.33 5th · 2nd on team -0.019 PR SR
2016-06-04 M.P. Striders USATF Youth T&F Sectionals 200m 30.37 9th · 3rd on team -0.019
2016-06-04 M.P. Striders USATF Youth T&F Sectionals 800m 3:11.12 8th · 1st on team 119.0 -0.019 PR R SR RSR
2016-05-29 Central Valley Roadrunners USATF Youth 400m 1:18.07 27th · 3rd on team -0.030
2016-05-29 Central Valley Roadrunners USATF Youth 80mh 20.4 18th · 3rd on team -0.030
2016-05-29 Central Valley Roadrunners USATF Youth 200m 30.01 22nd · 5th on team -0.030
2016-05-15 3M USATF Youth T&F Meet 200m 29.61 18th · 3rd on team -0.028 SR
2016-05-15 3M USATF Youth T&F Meet 80mh 20.47 20th · 2nd on team -0.028
2016-05-15 3M USATF Youth T&F Meet 400m 1:14.91 44th · 3rd on team -0.028
2016-05-01 Tommie Smith Invitational 400m 1:12.85 8th · 1st on team -0.036 SR
2016-05-01 Tommie Smith Invitational 80mh 20.24 4th · 1st on team -0.036
2016-05-01 Tommie Smith Invitational 100m 14.94 12th · 1st on team -0.036 ★PR SR
2016-05-01 Tommie Smith Invitational 100m 15.02 13th · 2nd on team -0.036
2016-04-09 Contra Costa Cheetahs Invitational 800m 3:18.89 25th · 4th on team 114.9 -0.017 PR R SR RSR
2016-04-09 Contra Costa Cheetahs Invitational 80mh 19.69 5th · 2nd on team -0.017 PR SR
2016-04-02 Sac Speed Factory USATF Youth T&F Meet 200m 30.95 23rd · 4th on team -0.033 SR
2016-04-02 Sac Speed Factory USATF Youth T&F Meet 400m 1:14.24 37th · 2nd on team -0.033 SR
2016-04-02 Sac Speed Factory USATF Youth T&F Meet 80mh 19.82 11th · 1st on team -0.033 PR SR

2015 TF

RPM Legacy (CA) · Grade -

Date Meet Event Result Place Rating Difficulty PR/SR Flags
2015-06-21 USATF Pacific Association Junior Olympic Championships 200m 31.17 10th · 1st on team -0.031
2015-06-21 USATF Pacific Association Junior Olympic Championships 200m 31.32 11th · 2nd on team -0.031
2015-05-31 PAC (Pacific Association Youth Champions 400m 1:18.57 22nd · 1st on team -0.024
2015-05-31 PAC (Pacific Association Youth Champions 200m 30.12 5th · 2nd on team -0.024
2015-05-31 PAC (Pacific Association Youth Champions 200m 29.46 2nd · 1st on team -0.024 PR SR
2015-05-23 LA Jets 2015 Invitational 400m 1:12.27 21st · 1st on team -0.035
2015-05-23 LA Jets 2015 Invitational 100m 15.21 28th · 1st on team -0.035 PR SR
2015-05-23 LA Jets 2015 Invitational 200m 30.88 12th · 1st on team -0.035
2015-05-16 3M Track Club Track and Field Invitation 200m 30.34 1st · 1st on team -0.028
2015-05-16 3M Track Club Track and Field Invitation 400m 1:11.34 3rd · 1st on team -0.028
2015-05-09 Stockton Saints Track Club 200m 30.12 3rd · 1st on team -0.022
2015-05-09 Stockton Saints Track Club 400m 1:11.18 3rd · 1st on team -0.022 ★PR SR
2015-05-02 Running Rebels/Top Pacers Invitational 200m 29.99 1st · 1st on team -0.038 PR SR
2015-05-02 Running Rebels/Top Pacers Invitational 400m 1:16.13 7th · 1st on team -0.038
2015-04-25 Revolution Express Track Club 400m 1:14.96 9th · 1st on team -0.024 PR SR
2015-04-25 Revolution Express Track Club 200m 30.56 1st · 1st on team -0.024 PR SR
2015-04-18 Shor/Sheppard Invitational 200m 30.63 3rd · 1st on team -0.022 PR SR
2015-04-18 Shor/Sheppard Invitational 400m 1:18.97 4th · 1st on team -0.022 SR
2015-03-21 RPM Legacy 100m 15.52 11th · 1st on team -0.020 SR
2015-03-21 RPM Legacy 400m 1:19.46 18th · 1st on team -0.020 SR

2014 TF

RPM Legacy (CA) · Grade -

Date Meet Event Result Place Rating Difficulty PR/SR Flags
2014-06-20 USATF Pacific Assoc. Junior Olympics (Top 8) 400m 1:21.75 30th · 8th on team -0.031
2014-06-20 USATF Pacific Assoc. Junior Olympics (Top 8) 200m 34.15 34th · 4th on team -0.031
2014-05-31 Pacific Association Championships (PAC) 200m 33.06 32nd · 3rd on team -0.024
2014-05-31 Pacific Association Championships (PAC) 400m 1:18.82 25th · 5th on team -0.024 PR SR
2014-05-25 Los Angeles Jets Invitational 400m 1:19.1 52nd · 4th on team -0.028 PR SR
2014-05-25 Los Angeles Jets Invitational 200m 32.17 42nd · 4th on team -0.028 PR SR
2014-05-25 Los Angeles Jets Invitational 100m 15.98 58th · 1st on team -0.028
2014-05-18 3M Invitational 100m 15.72 7th · 2nd on team -0.028
2014-05-18 3M Invitational 200m 32.51 4th · 3rd on team -0.028 PR SR
2014-05-18 3M Invitational 100m 15.55 6th · 1st on team -0.028
2014-04-26 Revolution Express TC 200m 33.15 5th · 3rd on team -0.024 PR SR
2014-04-26 Revolution Express TC 100m 15.85 9th · 2nd on team -0.024
2014-04-05 Sacramento Speed Showcase 100m 15.39 8th · 1st on team -0.033 PR SR
2014-04-05 Sacramento Speed Showcase 400m 1:22.49 20th · 3rd on team -0.033 PR SR
2014-04-05 Sacramento Speed Showcase 200m 33.37 6th · 2nd on team -0.033 SR
2014-03-22 RPM 100m 15.94 8th · 2nd on team -0.012
2014-03-01 RETC Practice Meet lj 7'2" -0.024
2014-03-01 RETC Practice Meet 100m 15.9 3rd · 2nd on team -0.024 SR
2014-03-01 RETC Practice Meet 200m 33.8 2nd · 1st on team -0.024 SR
2014-03-01 RETC Practice Meet 400m 1:25.2 6th · 3rd on team -0.024 SR

2013 TF

RPM Legacy (CA) · Grade -

Date Meet Event Result Place Rating Difficulty PR/SR Flags
2013-07-28 USATF National Junior Olympic Championships 100m 15.98 59th · 1st on team
2013-07-28 USATF National Junior Olympic Championships 200m 33.32 70th · 1st on team
2013-07-06 Region 14 Junior Olympics T&F (2-day) 200m 33.2 1st · 1st on team -0.035 PR SR
2013-07-06 Region 14 Junior Olympics T&F (2-day) 100m 16.33 1st · 1st on team -0.035
2013-06-21 Pacific Association Junior Olympics (3-day) 100m 15.86 2nd · 2nd on team -0.034 PR SR
2013-06-21 Pacific Association Junior Olympics (3-day) 200m 33.5 2nd · 1st on team -0.034 PR SR
2013-06-21 Pacific Association Junior Olympics (3-day) 200m 33.61 3rd · 2nd on team -0.034
2013-06-21 Pacific Association Junior Olympics (3-day) 100m 15.84 1st · 1st on team -0.034 PR SR
2013-06-08 Pacific Association Youth Championship (PAC) - 2-day meet 200m 35.62 9th · 2nd on team -0.024
2013-06-08 Pacific Association Youth Championship (PAC) - 2-day meet 200m 34.04 4th · 1st on team -0.024
2013-06-08 Pacific Association Youth Championship (PAC) - 2-day meet 100m 16.44 7th · 2nd on team -0.024
2013-06-08 Pacific Association Youth Championship (PAC) - 2-day meet 100m 16 3rd · 1st on team -0.024 PR SR
2013-05-18 3M Track Club 100m 16.68 11th · 1st on team -0.028
2013-05-18 3M Track Club 200m 34.26 2nd · 1st on team -0.028
2013-05-04 Hercules / Running Rebels (2-day) 100m 16.06 4th · 1st on team -0.038 PR SR
2013-05-04 Hercules / Running Rebels (2-day) 200m 34.79 2nd · 1st on team -0.038
2013-05-04 Hercules / Running Rebels (2-day) 100m 16.45 7th · 2nd on team -0.038
2013-04-27 Revolution Express Track Club 200m 33.53 1st · 1st on team -0.024 PR SR
2013-04-27 Revolution Express Track Club 100m 16.7 3rd · 1st on team -0.024
2013-04-20 Shor / Sheppard Classic 200m 34.43 1st · 1st on team -0.022 PR SR
2013-04-20 Shor / Sheppard Classic 100m 16.4 2nd · 1st on team -0.022 PR SR
2013-04-06 Sacramento Speed Showcase 400m 1:24.42 3rd · 1st on team -0.031 PR SR
2013-04-06 Sacramento Speed Showcase 100m 16.96 3rd · 1st on team -0.031 PR SR
2013-04-06 Sacramento Speed Showcase 200m 36.57 3rd · 1st on team -0.031 PR SR